createdAt,value
2023-11-24T00:06:12.882Z,7.52
2023-11-24T00:08:40.094Z,7.53
2023-11-24T00:11:07.253Z,7.46
2023-11-24T00:13:35.530Z,7.56
2023-11-24T00:16:04.500Z,7.46
2023-11-24T00:18:31.972Z,7.39
2023-11-24T00:21:07.134Z,7.36
2023-11-24T00:23:38.288Z,7.29
2023-11-24T00:26:07.491Z,7.30
2023-11-24T00:28:38.311Z,7.23
2023-11-24T00:31:08.183Z,7.18
2023-11-24T00:33:38.859Z,7.14
2023-11-24T00:36:07.718Z,7.10
2023-11-24T00:38:35.480Z,7.12
2023-11-24T00:41:03.392Z,7.03
2023-11-24T00:43:30.647Z,7.04
2023-11-24T00:45:58.114Z,7.08
2023-11-24T00:48:25.769Z,7.06
2023-11-24T00:50:53.026Z,7.05
2023-11-24T00:53:22.618Z,7.09
2023-11-24T00:55:49.901Z,7.12
2023-11-24T00:58:17.485Z,7.12
2023-11-24T01:00:44.918Z,7.04
2023-11-24T01:03:12.136Z,6.95
2023-11-24T01:05:39.248Z,6.97
2023-11-24T01:08:06.340Z,6.85
2023-11-24T01:10:33.490Z,6.86
2023-11-24T01:13:00.797Z,6.87
2023-11-24T01:15:28.359Z,6.75
2023-11-24T01:17:55.997Z,6.66
2023-11-24T01:20:23.756Z,6.73
2023-11-24T01:22:50.961Z,6.62
2023-11-24T01:25:18.238Z,6.64
2023-11-24T01:27:45.603Z,6.69
2023-11-24T01:30:13.021Z,6.55
2023-11-24T01:32:40.273Z,6.54
2023-11-24T01:35:08.507Z,6.48
2023-11-24T01:37:35.679Z,6.45
2023-11-24T01:40:05.969Z,6.42
2023-11-24T01:42:38.487Z,6.27
2023-11-24T01:45:10.282Z,6.31
2023-11-24T01:47:38.741Z,6.22
2023-11-24T01:50:06.938Z,6.17
2023-11-24T01:52:35.948Z,6.17
2023-11-24T01:55:05.703Z,6.15
2023-11-24T01:57:34.216Z,6.13
2023-11-24T02:00:01.771Z,6.10
2023-11-24T02:02:31.660Z,6.12
2023-11-24T02:04:59.009Z,6.13
2023-11-24T02:07:26.841Z,6.10
2023-11-24T02:09:54.666Z,6.04
2023-11-24T02:12:23.843Z,6.06
2023-11-24T02:14:51.074Z,6.10
2023-11-24T02:17:18.237Z,6.09
2023-11-24T02:19:45.432Z,5.95
2023-11-24T02:22:12.629Z,5.92
2023-11-24T02:24:39.876Z,5.85
2023-11-24T02:27:08.503Z,5.80
2023-11-24T02:29:35.635Z,5.68
2023-11-24T02:32:02.788Z,5.65
2023-11-24T02:34:32.620Z,5.61
2023-11-24T02:37:01.104Z,5.63
2023-11-24T02:39:28.533Z,5.70
2023-11-24T02:41:55.767Z,5.65
2023-11-24T02:44:24.039Z,5.68
2023-11-24T02:46:51.934Z,5.70
2023-11-24T02:49:19.388Z,5.70
2023-11-24T02:51:47.021Z,5.68
2023-11-24T02:54:14.205Z,5.63
2023-11-24T02:56:41.356Z,5.65
2023-11-24T02:59:08.481Z,5.54
2023-11-24T03:01:35.682Z,5.55
2023-11-24T03:04:04.665Z,5.53
2023-11-24T03:06:31.823Z,5.57
2023-11-24T03:09:01.953Z,5.64
2023-11-24T03:11:32.678Z,5.68
2023-11-24T03:14:00.212Z,5.64
2023-11-24T03:16:30.058Z,5.69
2023-11-24T03:18:57.433Z,5.70
2023-11-24T03:21:24.628Z,5.75
2023-11-24T03:23:51.856Z,5.76
2023-11-24T03:26:19.011Z,5.81
2023-11-24T03:28:46.554Z,5.81
2023-11-24T03:31:13.725Z,5.76
2023-11-24T03:33:40.860Z,5.75
2023-11-24T03:36:08.282Z,5.78
2023-11-24T03:38:35.398Z,5.79
2023-11-24T03:41:02.945Z,5.81
2023-11-24T03:43:30.236Z,5.86
2023-11-24T03:46:00.070Z,5.86
2023-11-24T03:48:30.167Z,5.83
2023-11-24T03:50:59.651Z,5.78
2023-11-24T03:53:26.809Z,5.81
2023-11-24T03:55:53.969Z,5.79
2023-11-24T03:58:22.076Z,5.78
2023-11-24T04:00:50.380Z,5.68
2023-11-24T04:03:18.533Z,5.80
2023-11-24T04:05:48.256Z,5.70
2023-11-24T04:08:15.470Z,5.75
2023-11-24T04:10:42.717Z,5.68
2023-11-24T04:13:09.884Z,5.58
2023-11-24T04:15:37.167Z,5.47
2023-11-24T04:18:04.570Z,5.41
2023-11-24T04:20:31.901Z,5.34
2023-11-24T04:22:59.111Z,5.22
2023-11-24T04:25:26.296Z,5.14
2023-11-24T04:27:54.906Z,5.03
2023-11-24T04:30:22.121Z,5.10
2023-11-24T04:32:49.752Z,5.11
2023-11-24T04:35:17.039Z,5.07
2023-11-24T04:37:44.421Z,5.00
2023-11-24T04:40:12.028Z,5.02
2023-11-24T04:42:51.808Z,5.11
2023-11-24T04:45:20.394Z,5.06
2023-11-24T04:47:48.266Z,5.08
2023-11-24T04:50:18.832Z,5.05
2023-11-24T04:52:46.330Z,5.05
2023-11-24T04:55:13.948Z,5.11
2023-11-24T04:57:42.286Z,5.09
2023-11-24T05:00:10.155Z,5.19
2023-11-24T05:02:37.390Z,5.19
2023-11-24T05:05:06.274Z,5.15
2023-11-24T05:07:33.410Z,5.24
2023-11-24T05:10:00.680Z,5.21
2023-11-24T05:12:27.883Z,5.20
2023-11-24T05:14:58.308Z,5.20
2023-11-24T05:17:25.923Z,5.24
2023-11-24T05:19:53.164Z,5.18
2023-11-24T05:22:20.309Z,5.17
2023-11-24T05:24:47.576Z,5.13
2023-11-24T05:27:14.699Z,5.14
2023-11-24T05:29:41.807Z,5.16
2023-11-24T05:32:08.979Z,5.16
2023-11-24T05:34:36.449Z,5.17
2023-11-24T05:37:07.254Z,5.15
2023-11-24T05:39:38.717Z,5.13
2023-11-24T05:42:06.277Z,5.06
2023-11-24T05:44:34.160Z,5.03
2023-11-24T05:47:05.411Z,4.97
2023-11-24T05:49:34.071Z,4.94
2023-11-24T05:52:01.692Z,4.88
2023-11-24T05:54:29.141Z,4.82
2023-11-24T05:56:56.629Z,4.77
2023-11-24T05:59:24.448Z,4.75
2023-11-24T06:01:52.317Z,4.76
2023-11-24T06:04:20.142Z,4.64
2023-11-24T06:06:48.360Z,4.63
2023-11-24T06:09:15.985Z,4.60
2023-11-24T06:11:43.344Z,4.58
2023-11-24T06:14:11.038Z,4.43
2023-11-24T06:16:38.148Z,4.39
2023-11-24T06:19:05.436Z,4.40
2023-11-24T06:21:32.730Z,4.38
2023-11-24T06:24:01.191Z,4.36
2023-11-24T06:26:32.078Z,4.34
2023-11-24T06:28:59.507Z,4.33
2023-11-24T06:31:26.869Z,4.32
2023-11-24T06:33:54.164Z,4.23
2023-11-24T06:36:21.695Z,4.36
2023-11-24T06:38:48.932Z,4.42
2023-11-24T06:41:16.171Z,4.41
2023-11-24T06:43:43.533Z,4.36
2023-11-24T06:46:13.056Z,4.46
2023-11-24T06:48:40.333Z,4.49
2023-11-24T06:51:10.651Z,4.40
2023-11-24T06:53:38.737Z,4.36
2023-11-24T06:56:06.703Z,4.22
2023-11-24T06:58:33.894Z,4.24
2023-11-24T07:01:01.257Z,4.21
2023-11-24T07:03:30.024Z,4.13
2023-11-24T07:05:57.585Z,4.17
2023-11-24T07:08:24.851Z,4.21
2023-11-24T07:10:52.305Z,4.17
2023-11-24T07:13:19.605Z,4.16
2023-11-24T07:15:46.836Z,4.19
2023-11-24T07:18:14.448Z,4.14
2023-11-24T07:20:41.738Z,4.23
2023-11-24T07:23:08.876Z,4.32
2023-11-24T07:25:36.242Z,4.37
2023-11-24T07:28:06.178Z,4.33
2023-11-24T07:30:36.130Z,4.36
2023-11-24T07:33:04.152Z,4.42
2023-11-24T07:35:34.589Z,4.39
2023-11-24T07:38:02.371Z,4.36
2023-11-24T07:40:32.759Z,4.42
2023-11-24T07:42:59.978Z,4.45
2023-11-24T07:45:31.249Z,4.35
2023-11-24T07:47:59.053Z,4.31
2023-11-24T07:50:26.523Z,4.27
2023-11-24T07:52:56.308Z,4.23
2023-11-24T07:55:25.263Z,4.22
2023-11-24T07:57:52.428Z,4.21
2023-11-24T08:00:20.281Z,4.17
2023-11-24T08:02:47.478Z,4.19
2023-11-24T08:05:14.984Z,4.14
2023-11-24T08:07:42.400Z,4.11
2023-11-24T08:10:10.805Z,3.97
2023-11-24T08:12:37.999Z,3.97
2023-11-24T08:15:09.030Z,3.86
2023-11-24T08:17:36.434Z,3.86
2023-11-24T08:20:10.611Z,3.81
2023-11-24T08:22:42.190Z,3.92
2023-11-24T08:25:13.280Z,3.92
2023-11-24T08:27:41.332Z,4.03
2023-11-24T08:30:12.194Z,4.05
2023-11-24T08:32:45.343Z,4.15
2023-11-24T08:35:14.042Z,4.26
2023-11-24T08:37:41.886Z,4.27
2023-11-24T08:40:12.925Z,4.22
2023-11-24T08:42:40.274Z,4.28
2023-11-24T08:45:10.620Z,4.16
2023-11-24T08:47:38.112Z,4.15
2023-11-24T08:50:07.291Z,4.24
2023-11-24T08:52:34.594Z,4.31
2023-11-24T08:55:02.244Z,4.31
2023-11-24T08:57:29.484Z,4.32
2023-11-24T08:59:56.716Z,4.42
2023-11-24T09:02:32.216Z,4.61
2023-11-24T09:04:59.908Z,4.63
2023-11-24T09:07:28.474Z,4.76
2023-11-24T09:10:02.443Z,4.80
2023-11-24T09:12:30.656Z,4.82
2023-11-24T09:14:57.806Z,4.95
2023-11-24T09:17:25.026Z,5.26
2023-11-24T09:19:52.080Z,5.34
2023-11-24T09:22:29.831Z,5.24
2023-11-24T09:24:58.274Z,5.21
2023-11-24T09:27:28.219Z,5.05
2023-11-24T09:29:55.647Z,5.10
2023-11-24T09:32:28.481Z,5.24
2023-11-24T09:34:55.683Z,5.28
2023-11-24T09:37:26.151Z,5.41
2023-11-24T09:39:54.110Z,5.71
2023-11-24T09:42:22.581Z,5.77
2023-11-24T09:44:56.067Z,5.79
2023-11-24T09:47:26.651Z,5.48
2023-11-24T09:49:56.442Z,5.21
2023-11-24T09:52:28.570Z,5.10
2023-11-24T09:55:00.352Z,4.85
2023-11-24T09:57:28.216Z,4.62
2023-11-24T09:59:55.366Z,4.45
2023-11-24T10:02:29.890Z,4.37
2023-11-24T10:04:58.696Z,4.48
2023-11-24T10:07:27.518Z,4.63
2023-11-24T10:09:55.485Z,4.90
2023-11-24T10:12:23.127Z,4.92
2023-11-24T10:14:50.691Z,5.00
2023-11-24T10:17:17.917Z,5.08
2023-11-24T10:19:45.108Z,5.33
2023-11-24T10:22:12.533Z,5.30
2023-11-24T10:24:39.760Z,5.44
2023-11-24T10:27:41.419Z,5.48
2023-11-24T10:30:09.336Z,5.26
2023-11-24T10:32:38.075Z,4.98
2023-11-24T10:35:05.794Z,4.98
2023-11-24T10:37:34.430Z,4.71
2023-11-24T10:40:05.195Z,4.39
2023-11-24T10:42:35.547Z,4.01
2023-11-24T10:45:09.111Z,3.83
2023-11-24T10:47:48.394Z,3.72
2023-11-24T10:50:18.043Z,3.72
2023-11-24T10:53:02.012Z,3.77
2023-11-24T10:55:31.548Z,3.94
2023-11-24T10:57:58.841Z,3.97
2023-11-24T11:00:26.226Z,4.09
2023-11-24T11:02:56.977Z,4.14
2023-11-24T11:05:53.623Z,4.13
2023-11-24T11:08:38.494Z,4.15
2023-11-24T11:11:13.530Z,4.16
2023-11-24T11:13:45.040Z,4.16
2023-11-24T11:16:15.372Z,4.17
2023-11-24T11:18:42.875Z,4.07
2023-11-24T11:21:32.912Z,4.00
2023-11-24T11:24:10.054Z,3.94
2023-11-24T11:26:53.120Z,4.01
2023-11-24T11:29:24.530Z,4.07
2023-11-24T11:31:52.501Z,4.06
2023-11-24T11:34:27.491Z,4.07
2023-11-24T11:37:07.139Z,4.00
2023-11-24T11:39:39.081Z,3.98
2023-11-24T11:42:06.595Z,3.98
2023-11-24T11:44:37.986Z,3.98
2023-11-24T11:47:27.825Z,4.08
2023-11-24T11:49:58.247Z,4.07
2023-11-24T11:52:27.979Z,4.11
2023-11-24T11:54:57.978Z,4.07
2023-11-24T11:57:26.116Z,4.01
2023-11-24T11:59:53.342Z,4.01
2023-11-24T12:02:24.528Z,4.03
2023-11-24T12:04:52.807Z,4.31
2023-11-24T12:07:21.201Z,4.44
2023-11-24T12:09:49.015Z,4.40
2023-11-24T12:12:16.706Z,4.33
2023-11-24T12:14:44.314Z,4.70
2023-11-24T12:17:12.169Z,5.06
2023-11-24T12:19:41.826Z,5.09
2023-11-24T12:22:11.025Z,5.21
2023-11-24T12:24:43.690Z,5.22
2023-11-24T12:27:19.338Z,5.14
2023-11-24T12:29:53.165Z,4.93
2023-11-24T12:32:25.389Z,4.81
2023-11-24T12:34:52.812Z,4.74
2023-11-24T12:37:24.797Z,4.57
2023-11-24T12:39:52.494Z,4.50
2023-11-24T12:42:34.846Z,4.46
2023-11-24T12:45:14.614Z,4.34
2023-11-24T12:47:44.634Z,4.34
2023-11-24T12:50:16.786Z,4.33
2023-11-24T12:52:46.903Z,4.34
2023-11-24T12:55:26.367Z,4.37
2023-11-24T12:57:58.621Z,4.35
2023-11-24T13:00:29.941Z,4.26
2023-11-24T13:03:09.576Z,4.34
2023-11-24T13:05:42.028Z,4.32
2023-11-24T13:08:10.793Z,4.32
2023-11-24T13:10:41.897Z,4.27
2023-11-24T13:13:09.770Z,4.28
2023-11-24T13:15:37.389Z,4.22
2023-11-24T13:18:05.593Z,4.24
2023-11-24T13:20:36.272Z,4.24
2023-11-24T13:23:08.135Z,4.28
2023-11-24T13:25:39.825Z,4.37
2023-11-24T13:28:07.681Z,4.32
2023-11-24T13:30:35.100Z,4.38
2023-11-24T13:33:06.664Z,4.39
2023-11-24T13:35:35.101Z,4.31
2023-11-24T13:38:04.067Z,4.20
2023-11-24T13:40:33.413Z,4.22
2023-11-24T13:43:00.755Z,4.18
2023-11-24T13:45:28.665Z,4.15
2023-11-24T13:47:58.284Z,4.16
2023-11-24T13:50:26.767Z,4.12
2023-11-24T13:52:57.374Z,4.14
2023-11-24T13:55:35.792Z,4.15
2023-11-24T13:58:05.393Z,4.17
2023-11-24T14:00:35.538Z,4.27
2023-11-24T14:03:03.378Z,4.28
2023-11-24T14:05:32.012Z,4.11
2023-11-24T14:07:59.562Z,4.05
2023-11-24T14:10:28.177Z,3.93
2023-11-24T14:12:55.563Z,3.95
2023-11-24T14:15:24.541Z,3.92
2023-11-24T14:17:51.994Z,3.84
2023-11-24T14:20:24.299Z,3.80
2023-11-24T14:22:55.758Z,3.74
2023-11-24T14:25:23.633Z,3.69
2023-11-24T14:27:51.452Z,3.74
2023-11-24T14:30:25.284Z,3.72
2023-11-24T14:32:52.742Z,3.70
2023-11-24T14:35:22.775Z,3.64
2023-11-24T14:37:52.988Z,3.64
2023-11-24T14:40:21.670Z,3.61
2023-11-24T14:42:51.198Z,3.67
2023-11-24T14:45:23.754Z,3.71
2023-11-24T14:47:52.192Z,3.66
2023-11-24T14:50:27.573Z,3.70
2023-11-24T14:52:56.509Z,3.67
2023-11-24T14:55:24.332Z,3.66
2023-11-24T14:57:56.926Z,3.74
2023-11-24T15:00:53.993Z,3.79
2023-11-24T15:03:23.857Z,3.79
2023-11-24T15:05:56.116Z,3.68
2023-11-24T15:08:23.502Z,3.70
2023-11-24T15:10:50.866Z,3.69
2023-11-24T15:13:22.369Z,3.60
2023-11-24T15:15:51.059Z,3.63
2023-11-24T15:18:22.481Z,3.64
2023-11-24T15:20:55.127Z,3.44
2023-11-24T15:23:25.331Z,3.54
2023-11-24T15:25:55.635Z,3.52
2023-11-24T15:28:24.946Z,3.51
2023-11-24T15:30:54.659Z,3.48
2023-11-24T15:33:22.427Z,3.47
2023-11-24T15:35:51.011Z,3.45
2023-11-24T15:38:20.777Z,3.42
2023-11-24T15:40:53.342Z,3.42
2023-11-24T15:43:25.403Z,3.40
2023-11-24T15:46:00.272Z,3.41
2023-11-24T15:48:27.769Z,3.44
2023-11-24T15:51:00.310Z,3.33
2023-11-24T15:53:31.606Z,3.36
2023-11-24T15:56:02.147Z,3.35
2023-11-24T15:58:31.270Z,3.39
2023-11-24T16:01:02.079Z,3.39
2023-11-24T16:03:30.174Z,3.33
2023-11-24T16:06:02.667Z,3.27
2023-11-24T16:08:37.887Z,3.27
2023-11-24T16:11:11.441Z,3.25
2023-11-24T16:13:42.762Z,3.28
2023-11-24T16:16:10.089Z,3.29
2023-11-24T16:18:40.599Z,3.28
2023-11-24T16:21:08.448Z,3.26
2023-11-24T16:23:38.497Z,3.26
2023-11-24T16:26:06.237Z,3.29
2023-11-24T16:28:33.269Z,3.28
2023-11-24T16:31:00.937Z,3.23
2023-11-24T16:33:29.721Z,3.23
2023-11-24T16:36:01.940Z,3.18
2023-11-24T16:38:31.536Z,3.16
2023-11-24T16:41:05.192Z,3.16
2023-11-24T16:43:32.429Z,3.19
2023-11-24T16:46:06.635Z,3.16
2023-11-24T16:48:34.072Z,3.18
2023-11-24T16:51:03.639Z,3.15
2023-11-24T16:53:30.727Z,3.11
2023-11-24T16:56:01.643Z,3.07
2023-11-24T16:58:30.960Z,3.04
2023-11-24T17:01:00.942Z,3.08
2023-11-24T17:03:31.003Z,3.02
2023-11-24T17:05:59.313Z,3.11
2023-11-24T17:08:26.609Z,3.09
2023-11-24T17:10:54.338Z,3.17
2023-11-24T17:13:21.627Z,3.16
2023-11-24T17:15:50.413Z,3.18
2023-11-24T17:18:18.728Z,3.14
2023-11-24T17:20:48.105Z,3.22
2023-11-24T17:23:18.502Z,3.12
2023-11-24T17:25:46.774Z,3.21
2023-11-24T17:28:14.022Z,3.28
2023-11-24T17:30:42.083Z,3.32
2023-11-24T17:33:10.604Z,3.37
2023-11-24T17:35:37.762Z,3.33
2023-11-24T17:38:04.936Z,3.39
2023-11-24T17:40:32.090Z,3.36
2023-11-24T17:42:59.780Z,3.36
2023-11-24T17:45:27.326Z,3.37
2023-11-24T17:47:55.824Z,3.42
2023-11-24T17:50:24.843Z,3.49
2023-11-24T17:52:52.434Z,3.50
2023-11-24T17:55:19.573Z,3.56
2023-11-24T17:57:48.105Z,3.59
2023-11-24T18:00:21.910Z,3.55
2023-11-24T18:02:50.841Z,3.42
2023-11-24T18:05:18.890Z,3.19
2023-11-24T18:07:46.262Z,3.08
2023-11-24T18:10:14.158Z,3.04
2023-11-24T18:12:41.356Z,3.02
2023-11-24T18:15:11.208Z,3.02
2023-11-24T18:17:41.287Z,3.00
2023-11-24T18:20:09.973Z,3.02
2023-11-24T18:22:38.465Z,3.02
2023-11-24T18:25:09.332Z,2.92
2023-11-24T18:27:39.152Z,2.87
2023-11-24T18:30:11.278Z,2.89
2023-11-24T18:32:39.564Z,2.90
2023-11-24T18:35:09.604Z,2.87
2023-11-24T18:37:37.651Z,2.86
2023-11-24T18:40:06.394Z,2.88
2023-11-24T18:42:33.974Z,2.85
2023-11-24T18:45:02.679Z,2.85
2023-11-24T18:47:29.939Z,2.81
2023-11-24T18:49:57.752Z,2.78
2023-11-24T18:52:25.263Z,2.75
2023-11-24T18:54:55.392Z,2.72
2023-11-24T18:57:23.328Z,2.66
2023-11-24T18:59:51.488Z,2.65
2023-11-24T19:02:18.775Z,2.59
2023-11-24T19:04:46.026Z,2.62
2023-11-24T19:07:13.333Z,2.52
2023-11-24T19:09:40.806Z,2.48
2023-11-24T19:12:08.145Z,2.38
2023-11-24T19:14:35.841Z,2.42
2023-11-24T19:17:04.251Z,2.41
2023-11-24T19:19:32.578Z,2.43
2023-11-24T19:22:00.429Z,2.43
2023-11-24T19:24:28.050Z,2.42
2023-11-24T19:26:55.150Z,2.34
2023-11-24T19:29:22.252Z,2.26
2023-11-24T19:31:49.542Z,2.24
2023-11-24T19:34:16.895Z,2.29
2023-11-24T19:36:44.102Z,2.26
2023-11-24T19:39:12.825Z,2.31
2023-11-24T19:41:40.792Z,2.30
2023-11-24T19:44:08.656Z,2.29
2023-11-24T19:46:36.864Z,2.29
2023-11-24T19:49:04.165Z,2.23
2023-11-24T19:51:31.353Z,2.21
2023-11-24T19:53:58.515Z,2.26
2023-11-24T19:56:25.548Z,2.25
2023-11-24T19:58:55.133Z,2.29
2023-11-24T20:01:23.353Z,2.29
2023-11-24T20:03:50.906Z,2.19
2023-11-24T20:06:18.693Z,2.15
2023-11-24T20:08:46.397Z,2.15
2023-11-24T20:11:13.694Z,2.08
2023-11-24T20:13:40.905Z,2.13
2023-11-24T20:16:10.259Z,2.14
2023-11-24T20:18:40.066Z,2.12
2023-11-24T20:21:07.238Z,2.11
2023-11-24T20:23:34.288Z,2.17
2023-11-24T20:26:01.734Z,2.18
2023-11-24T20:28:29.967Z,2.17
2023-11-24T20:30:57.301Z,2.19
2023-11-24T20:33:24.398Z,2.20
2023-11-24T20:35:52.573Z,2.17
2023-11-24T20:38:19.650Z,2.23
2023-11-24T20:40:46.818Z,2.22
2023-11-24T20:43:14.060Z,2.22
2023-11-24T20:45:41.512Z,2.16
2023-11-24T20:48:11.063Z,2.23
2023-11-24T20:50:38.244Z,2.22
2023-11-24T20:53:05.327Z,2.26
2023-11-24T20:55:33.313Z,2.24
2023-11-24T20:58:00.478Z,2.16
2023-11-24T21:00:27.692Z,2.17
2023-11-24T21:02:54.885Z,2.26
2023-11-24T21:05:22.025Z,2.22
2023-11-24T21:07:51.298Z,2.21
2023-11-24T21:10:18.555Z,2.17
2023-11-24T21:12:45.721Z,2.19
2023-11-24T21:15:15.486Z,2.19
2023-11-24T21:17:42.952Z,2.15
2023-11-24T21:20:11.089Z,2.20
2023-11-24T21:22:38.582Z,2.23
2023-11-24T21:25:07.052Z,2.24
2023-11-24T21:27:34.274Z,2.20
2023-11-24T21:30:01.356Z,2.22
2023-11-24T21:32:32.337Z,2.25
2023-11-24T21:35:01.351Z,2.28
2023-11-24T21:37:30.616Z,2.25
2023-11-24T21:40:07.728Z,2.29
2023-11-24T21:42:35.055Z,2.30
2023-11-24T21:45:02.802Z,2.32
2023-11-24T21:47:33.200Z,2.31
2023-11-24T21:50:00.427Z,2.31
2023-11-24T21:52:28.056Z,2.29
2023-11-24T21:54:55.221Z,2.31
2023-11-24T21:57:22.550Z,2.31
2023-11-24T21:59:50.262Z,2.33
2023-11-24T22:02:17.433Z,2.29
2023-11-24T22:04:44.641Z,2.22
2023-11-24T22:07:11.877Z,2.27
2023-11-24T22:09:40.439Z,2.27
2023-11-24T22:12:07.867Z,2.24
2023-11-24T22:14:35.233Z,2.24
2023-11-24T22:17:02.741Z,2.24
2023-11-24T22:19:29.937Z,2.22
2023-11-24T22:21:57.025Z,2.28
2023-11-24T22:24:24.070Z,2.17
2023-11-24T22:26:51.867Z,2.27
2023-11-24T22:29:18.958Z,2.26
2023-11-24T22:31:46.433Z,2.25
2023-11-24T22:34:13.584Z,2.25
2023-11-24T22:36:40.860Z,2.24
2023-11-24T22:39:08.522Z,2.27
2023-11-24T22:41:35.704Z,2.25
2023-11-24T22:44:02.861Z,2.21
2023-11-24T22:46:30.026Z,2.18
2023-11-24T22:48:57.232Z,2.16
2023-11-24T22:51:29.250Z,2.19
2023-11-24T22:53:56.690Z,2.12
2023-11-24T22:56:27.974Z,2.12
2023-11-24T22:58:56.894Z,2.13
2023-11-24T23:01:25.648Z,2.10
2023-11-24T23:03:57.896Z,2.09
2023-11-24T23:06:26.118Z,2.11
2023-11-24T23:08:55.288Z,2.09
2023-11-24T23:11:23.377Z,2.11
2023-11-24T23:13:52.109Z,2.07
2023-11-24T23:16:21.106Z,2.10
2023-11-24T23:18:48.449Z,2.05
2023-11-24T23:21:19.013Z,1.99
2023-11-24T23:23:48.640Z,2.00
2023-11-24T23:26:16.934Z,2.00
2023-11-24T23:28:44.140Z,1.96
2023-11-24T23:31:13.804Z,1.96
2023-11-24T23:33:42.492Z,2.01
2023-11-24T23:36:13.808Z,1.97
2023-11-24T23:38:41.708Z,1.91
2023-11-24T23:41:09.094Z,1.86
2023-11-24T23:43:37.131Z,1.84
2023-11-24T23:46:04.954Z,1.87
2023-11-24T23:48:33.466Z,1.88
2023-11-24T23:51:01.087Z,1.80
2023-11-24T23:53:29.209Z,1.81
2023-11-24T23:55:58.062Z,1.90
2023-11-24T23:58:26.895Z,1.90
